sensor_id;sensor_type;location;lat;lon;timestamp;pressure;altitude;pressure_sealevel;temperature;humidity
10940;BME280;5522;42.696;23.494;2022-07-29T00:00:24;95872.59;;;17.82;100.00
10940;BME280;5522;42.696;23.494;2022-07-29T00:02:51;95872.69;;;17.86;100.00
10940;BME280;5522;42.696;23.494;2022-07-29T00:05:18;95873.94;;;17.92;100.00
10940;BME280;5522;42.696;23.494;2022-07-29T00:07:45;95880.44;;;17.94;100.00
10940;BME280;5522;42.696;23.494;2022-07-29T00:10:12;95876.53;;;17.88;100.00
10940;BME280;5522;42.696;23.494;2022-07-29T00:12:39;95885.06;;;17.97;100.00
10940;BME280;5522;42.696;23.494;2022-07-29T00:15:08;95885.56;;;18.03;100.00
10940;BME280;5522;42.696;23.494;2022-07-29T00:17:35;95888.63;;;18.05;100.00
10940;BME280;5522;42.696;23.494;2022-07-29T00:22:38;95891.38;;;18.08;100.00
10940;BME280;5522;42.696;23.494;2022-07-29T00:25:05;95887.44;;;18.02;100.00
10940;BME280;5522;42.696;23.494;2022-07-29T00:27:33;95892.75;;;18.02;100.00
10940;BME280;5522;42.696;23.494;2022-07-29T00:30:00;95893.94;;;18.05;100.00
10940;BME280;5522;42.696;23.494;2022-07-29T00:32:29;95886.25;;;18.00;100.00
10940;BME280;5522;42.696;23.494;2022-07-29T00:34:55;95887.44;;;18.02;100.00
10940;BME280;5522;42.696;23.494;2022-07-29T00:37:40;95886.59;;;17.98;100.00
10940;BME280;5522;42.696;23.494;2022-07-29T00:40:08;95884.63;;;17.95;100.00
10940;BME280;5522;42.696;23.494;2022-07-29T00:42:41;95875.81;;;17.91;100.00
10940;BME280;5522;42.696;23.494;2022-07-29T00:45:09;95884.06;;;17.86;100.00
10940;BME280;5522;42.696;23.494;2022-07-29T00:47:38;95879.59;;;17.90;100.00
10940;BME280;5522;42.696;23.494;2022-07-29T00:50:06;95876.53;;;17.88;100.00
10940;BME280;5522;42.696;23.494;2022-07-29T00:52:34;95874.28;;;17.90;100.00
10940;BME280;5522;42.696;23.494;2022-07-29T00:55:02;95871.22;;;17.88;100.00
10940;BME280;5522;42.696;23.494;2022-07-29T00:57:30;95881.75;;;17.85;100.00
10940;BME280;5522;42.696;23.494;2022-07-29T01:05:27;95876.53;;;17.88;100.00
10940;BME280;5522;42.696;23.494;2022-07-29T01:07:55;95878.75;;;17.86;100.00
10940;BME280;5522;42.696;23.494;2022-07-29T01:10:24;95874.97;;;17.87;100.00
10940;BME280;5522;42.696;23.494;2022-07-29T01:12:52;95876.53;;;17.88;100.00
10940;BME280;5522;42.696;23.494;2022-07-29T01:15:20;95877.63;;;17.87;100.00
10940;BME280;5522;42.696;23.494;2022-07-29T01:17:52;95875.41;;;17.89;100.00
10940;BME280;5522;42.696;23.494;2022-07-29T01:20:26;95877.91;;;17.82;100.00
10940;BME280;5522;42.696;23.494;2022-07-29T01:23:23;95878.22;;;17.62;100.00
10940;BME280;5522;42.696;23.494;2022-07-29T01:26:12;95875.47;;;17.58;100.00
10940;BME280;5522;42.696;23.494;2022-07-29T01:28:54;95875.72;;;17.53;100.00
10940;BME280;5522;42.696;23.494;2022-07-29T01:31:32;95875.56;;;17.46;100.00
10940;BME280;5522;42.696;23.494;2022-07-29T01:34:03;95880.88;;;17.46;100.00
10940;BME280;5522;42.696;23.494;2022-07-29T01:36:35;95880.47;;;17.44;100.00
10940;BME280;5522;42.696;23.494;2022-07-29T01:39:08;95882.34;;;17.44;100.00
10940;BME280;5522;42.696;23.494;2022-07-29T01:41:38;95889.53;;;17.43;100.00
10940;BME280;5522;42.696;23.494;2022-07-29T01:44:13;95875.94;;;17.45;100.00
10940;BME280;5522;42.696;23.494;2022-07-29T01:46:48;95876.69;;;17.45;100.00
10940;BME280;5522;42.696;23.494;2022-07-29T01:49:21;95865.78;;;17.50;100.00
10940;BME280;5522;42.696;23.494;2022-07-29T01:51:51;95868.09;;;17.52;100.00
10940;BME280;5522;42.696;23.494;2022-07-29T01:54:21;95867.97;;;17.45;100.00
10940;BME280;5522;42.696;23.494;2022-07-29T01:56:51;95870.69;;;17.48;100.00
10940;BME280;5522;42.696;23.494;2022-07-29T01:59:23;95852.28;;;17.55;100.00
10940;BME280;5522;42.696;23.494;2022-07-29T02:01:53;95857.47;;;17.52;100.00
10940;BME280;5522;42.696;23.494;2022-07-29T02:04:21;95856.88;;;17.58;100.00
10940;BME280;5522;42.696;23.494;2022-07-29T02:06:51;95857.72;;;17.62;100.00
10940;BME280;5522;42.696;23.494;2022-07-29T02:09:20;95871.44;;;17.64;100.00
10940;BME280;5522;42.696;23.494;2022-07-29T02:11:51;95861.22;;;17.66;100.00
10940;BME280;5522;42.696;23.494;2022-07-29T02:14:22;95855.16;;;17.66;100.00
10940;BME280;5522;42.696;23.494;2022-07-29T02:16:52;95857.72;;;17.62;100.00
10940;BME280;5522;42.696;23.494;2022-07-29T02:19:22;95853.13;;;17.59;100.00
10940;BME280;5522;42.696;23.494;2022-07-29T02:21:53;95844.19;;;17.52;100.00
10940;BME280;5522;42.696;23.494;2022-07-29T02:24:22;95844.31;;;17.55;100.00
10940;BME280;5522;42.696;23.494;2022-07-29T02:26:51;95841.47;;;17.48;100.00
10940;BME280;5522;42.696;23.494;2022-07-29T02:29:23;95854.59;;;17.57;100.00
10940;BME280;5522;42.696;23.494;2022-07-29T02:31:52;95856.97;;;17.62;100.00
10940;BME280;5522;42.696;23.494;2022-07-29T02:34:21;95856.69;;;17.67;100.00
10940;BME280;5522;42.696;23.494;2022-07-29T02:36:49;95859.56;;;17.77;100.00
10940;BME280;5522;42.696;23.494;2022-07-29T02:39:17;95851.94;;;17.76;100.00
10940;BME280;5522;42.696;23.494;2022-07-29T02:41:47;95859.28;;;17.82;100.00
10940;BME280;5522;42.696;23.494;2022-07-29T02:44:15;95851.31;;;17.82;100.00
10940;BME280;5522;42.696;23.494;2022-07-29T02:46:47;95849.78;;;17.81;100.00
10940;BME280;5522;42.696;23.494;2022-07-29T02:49:21;95835.94;;;17.72;100.00
10940;BME280;5522;42.696;23.494;2022-07-29T02:51:57;95841.25;;;17.72;100.00
10940;BME280;5522;42.696;23.494;2022-07-29T02:54:31;95833.13;;;17.65;100.00
10940;BME280;5522;42.696;23.494;2022-07-29T02:57:03;95841.09;;;17.65;100.00
10940;BME280;5522;42.696;23.494;2022-07-29T02:59:34;95848.94;;;17.77;100.00
10940;BME280;5522;42.696;23.494;2022-07-29T03:02:04;95852.00;;;17.79;100.00
10940;BME280;5522;42.696;23.494;2022-07-29T03:04:33;95852.78;;;17.80;100.00
10940;BME280;5522;42.696;23.494;2022-07-29T03:07:01;95842.16;;;17.80;100.00
10940;BME280;5522;42.696;23.494;2022-07-29T03:09:30;95845.59;;;17.80;100.00
10940;BME280;5522;42.696;23.494;2022-07-29T03:11:58;95844.53;;;17.85;100.00
10940;BME280;5522;42.696;23.494;2022-07-29T03:14:25;95848.66;;;17.82;100.00
10940;BME280;5522;42.696;23.494;2022-07-29T03:16:53;95836.91;;;17.83;100.00
10940;BME280;5522;42.696;23.494;2022-07-29T03:19:22;95839.56;;;17.83;100.00
10940;BME280;5522;42.696;23.494;2022-07-29T03:21:49;95840.28;;;17.80;100.00
10940;BME280;5522;42.696;23.494;2022-07-29T03:24:27;95846.94;;;17.90;100.00
10940;BME280;5522;42.696;23.494;2022-07-29T03:26:55;95837.91;;;17.94;100.00
10940;BME280;5522;42.696;23.494;2022-07-29T03:29:22;95842.19;;;17.99;100.00
10940;BME280;5522;42.696;23.494;2022-07-29T03:31:49;95840.44;;;18.06;100.00
10940;BME280;5522;42.696;23.494;2022-07-29T03:34:16;95830.44;;;18.00;100.00
10940;BME280;5522;42.696;23.494;2022-07-29T03:36:44;95835.69;;;17.96;100.00
10940;BME280;5522;42.696;23.494;2022-07-29T03:39:11;95831.59;;;17.83;100.00
10940;BME280;5522;42.696;23.494;2022-07-29T03:41:42;95830.06;;;17.82;100.00
10940;BME280;5522;42.696;23.494;2022-07-29T03:44:11;95833.97;;;17.69;100.00
10940;BME280;5522;42.696;23.494;2022-07-29T03:46:39;95832.09;;;17.70;100.00
10940;BME280;5522;42.696;23.494;2022-07-29T03:49:08;95839.72;;;17.71;100.00
10940;BME280;5522;42.696;23.494;2022-07-29T03:51:37;95838.09;;;17.67;100.00
10940;BME280;5522;42.696;23.494;2022-07-29T03:54:06;95834.19;;;17.61;100.00
10940;BME280;5522;42.696;23.494;2022-07-29T03:56:38;95824.94;;;17.55;100.00
10940;BME280;5522;42.696;23.494;2022-07-29T03:59:07;95850.19;;;17.64;100.00
10940;BME280;5522;42.696;23.494;2022-07-29T04:01:34;95848.88;;;17.74;100.00
10940;BME280;5522;42.696;23.494;2022-07-29T04:04:02;95856.63;;;17.82;100.00
10940;BME280;5522;42.696;23.494;2022-07-29T04:06:38;95855.78;;;17.94;100.00
10940;BME280;5522;42.696;23.494;2022-07-29T04:09:07;95852.88;;;18.02;100.00
10940;BME280;5522;42.696;23.494;2022-07-29T04:11:35;95848.13;;;18.11;100.00
10940;BME280;5522;42.696;23.494;2022-07-29T04:14:02;95847.94;;;18.20;100.00
10940;BME280;5522;42.696;23.494;2022-07-29T04:16:29;95846.44;;;18.79;100.00
10940;BME280;5522;42.696;23.494;2022-07-29T04:18:56;95850.41;;;19.60;100.00
10940;BME280;5522;42.696;23.494;2022-07-29T04:21:23;95841.75;;;19.66;100.00
10940;BME280;5522;42.696;23.494;2022-07-29T04:23:50;95845.34;;;19.51;100.00
10940;BME280;5522;42.696;23.494;2022-07-29T04:26:19;95847.78;;;19.37;100.00
10940;BME280;5522;42.696;23.494;2022-07-29T04:28:47;95844.19;;;19.26;100.00
10940;BME280;5522;42.696;23.494;2022-07-29T04:31:14;95844.00;;;19.16;100.00
10940;BME280;5522;42.696;23.494;2022-07-29T04:33:41;95848.75;;;19.03;100.00
10940;BME280;5522;42.696;23.494;2022-07-29T04:36:08;95844.81;;;18.97;100.00
10940;BME280;5522;42.696;23.494;2022-07-29T04:38:36;95845.53;;;18.94;100.00
10940;BME280;5522;42.696;23.494;2022-07-29T04:41:03;95852.94;;;18.82;100.00
10940;BME280;5522;42.696;23.494;2022-07-29T04:43:33;95844.53;;;18.80;100.00
10940;BME280;5522;42.696;23.494;2022-07-29T04:46:01;95852.63;;;18.87;100.00
10940;BME280;5522;42.696;23.494;2022-07-29T04:48:28;95853.59;;;18.98;100.00
10940;BME280;5522;42.696;23.494;2022-07-29T04:50:55;95851.47;;;19.07;100.00
10940;BME280;5522;42.696;23.494;2022-07-29T04:53:22;95858.75;;;19.84;100.00
10940;BME280;5522;42.696;23.494;2022-07-29T04:55:49;95856.28;;;21.99;100.00
10940;BME280;5522;42.696;23.494;2022-07-29T04:58:16;95859.72;;;23.79;100.00
10940;BME280;5522;42.696;23.494;2022-07-29T05:00:45;95858.44;;;25.12;100.00
10940;BME280;5522;42.696;23.494;2022-07-29T05:03:12;95874.63;;;26.00;100.00
10940;BME280;5522;42.696;23.494;2022-07-29T05:05:38;95866.38;;;27.08;100.00
10940;BME280;5522;42.696;23.494;2022-07-29T05:08:06;95871.75;;;28.26;100.00
10940;BME280;5522;42.696;23.494;2022-07-29T05:10:33;95871.78;;;29.01;100.00
10940;BME280;5522;42.696;23.494;2022-07-29T05:13:04;95871.34;;;29.02;100.00
10940;BME280;5522;42.696;23.494;2022-07-29T05:15:30;95872.91;;;29.51;96.63
10940;BME280;5522;42.696;23.494;2022-07-29T05:17:59;95878.22;;;30.03;90.56
10940;BME280;5522;42.696;23.494;2022-07-29T05:20:26;95884.97;;;30.40;86.36
10940;BME280;5522;42.696;23.494;2022-07-29T05:22:54;95879.28;;;31.04;81.97
10940;BME280;5522;42.696;23.494;2022-07-29T05:25:21;95884.41;;;31.77;74.81
10940;BME280;5522;42.696;23.494;2022-07-29T05:27:48;95877.69;;;31.19;77.67
10940;BME280;5522;42.696;23.494;2022-07-29T05:30:15;95894.38;;;31.55;71.14
10940;BME280;5522;42.696;23.494;2022-07-29T05:32:42;95883.22;;;31.28;74.85
10940;BME280;5522;42.696;23.494;2022-07-29T05:35:11;95887.09;;;31.02;74.00
10940;BME280;5522;42.696;23.494;2022-07-29T05:37:39;95887.28;;;30.70;74.70
10940;BME280;5522;42.696;23.494;2022-07-29T05:40:08;95882.41;;;30.77;75.57
10940;BME280;5522;42.696;23.494;2022-07-29T05:42:36;95875.56;;;30.73;76.16
10940;BME280;5522;42.696;23.494;2022-07-29T05:45:03;95880.13;;;30.18;78.85
10940;BME280;5522;42.696;23.494;2022-07-29T05:47:30;95875.28;;;29.81;77.29
10940;BME280;5522;42.696;23.494;2022-07-29T05:49:57;95871.56;;;29.43;73.40
10940;BME280;5522;42.696;23.494;2022-07-29T05:52:26;95880.22;;;29.70;74.69
10940;BME280;5522;42.696;23.494;2022-07-29T05:54:53;95882.44;;;30.20;72.37
10940;BME280;5522;42.696;23.494;2022-07-29T05:57:21;95875.28;;;29.81;70.24
10940;BME280;5522;42.696;23.494;2022-07-29T05:59:49;95883.50;;;29.78;69.09
10940;BME280;5522;42.696;23.494;2022-07-29T06:02:17;95875.63;;;29.35;72.18
10940;BME280;5522;42.696;23.494;2022-07-29T06:04:44;95881.59;;;30.07;69.58
10940;BME280;5522;42.696;23.494;2022-07-29T06:07:11;95884.31;;;30.36;60.23
10940;BME280;5522;42.696;23.494;2022-07-29T06:09:39;95884.72;;;30.63;59.31
10940;BME280;5522;42.696;23.494;2022-07-29T06:12:07;95888.53;;;30.65;60.04
10940;BME280;5522;42.696;23.494;2022-07-29T06:14:34;95893.88;;;30.40;56.08
10940;BME280;5522;42.696;23.494;2022-07-29T06:17:03;95890.25;;;29.86;62.18
10940;BME280;5522;42.696;23.494;2022-07-29T06:19:30;95902.00;;;30.40;57.94
10940;BME280;5522;42.696;23.494;2022-07-29T06:21:57;95898.09;;;31.23;58.48
10940;BME280;5522;42.696;23.494;2022-07-29T06:24:24;95892.00;;;30.66;53.53
10940;BME280;5522;42.696;23.494;2022-07-29T06:26:53;95894.03;;;30.04;56.28
10940;BME280;5522;42.696;23.494;2022-07-29T06:29:19;95885.78;;;29.95;58.04
10940;BME280;5522;42.696;23.494;2022-07-29T06:31:46;95877.81;;;29.88;57.38
10940;BME280;5522;42.696;23.494;2022-07-29T06:34:13;95886.72;;;30.34;58.79
10940;BME280;5522;42.696;23.494;2022-07-29T06:36:41;95891.88;;;30.57;57.19
10940;BME280;5522;42.696;23.494;2022-07-29T06:39:08;95888.03;;;30.70;58.03
10940;BME280;5522;42.696;23.494;2022-07-29T06:41:35;95882.75;;;31.17;53.21
10940;BME280;5522;42.696;23.494;2022-07-29T06:44:04;95879.09;;;31.36;53.36
10940;BME280;5522;42.696;23.494;2022-07-29T06:46:31;95873.38;;;31.68;55.13
10940;BME280;5522;42.696;23.494;2022-07-29T06:48:58;95866.47;;;31.79;52.32
10940;BME280;5522;42.696;23.494;2022-07-29T06:51:26;95865.53;;;31.23;52.28
10940;BME280;5522;42.696;23.494;2022-07-29T06:53:54;95882.88;;;31.13;48.77
10940;BME280;5522;42.696;23.494;2022-07-29T06:56:22;95877.56;;;31.35;49.23
10940;BME280;5522;42.696;23.494;2022-07-29T06:58:49;95869.19;;;31.79;50.52
10940;BME280;5522;42.696;23.494;2022-07-29T07:01:18;95866.22;;;32.42;50.75
10940;BME280;5522;42.696;23.494;2022-07-29T07:03:45;95871.50;;;32.24;49.41
10940;BME280;5522;42.696;23.494;2022-07-29T07:06:12;95865.88;;;31.72;49.22
10940;BME280;5522;42.696;23.494;2022-07-29T07:08:39;95865.56;;;31.70;52.08
10940;BME280;5522;42.696;23.494;2022-07-29T07:11:06;95859.75;;;32.27;51.67
10940;BME280;5522;42.696;23.494;2022-07-29T07:13:33;95852.13;;;31.66;52.71
10940;BME280;5522;42.696;23.494;2022-07-29T07:16:00;95861.59;;;31.49;54.51
10940;BME280;5522;42.696;23.494;2022-07-29T07:18:29;95869.75;;;31.96;51.14
10940;BME280;5522;42.696;23.494;2022-07-29T07:20:57;95865.41;;;32.54;52.27
10940;BME280;5522;42.696;23.494;2022-07-29T07:23:24;95871.50;;;33.19;50.63
10940;BME280;5522;42.696;23.494;2022-07-29T07:25:51;95855.88;;;33.41;48.20
10940;BME280;5522;42.696;23.494;2022-07-29T07:28:19;95861.75;;;32.48;49.95
10940;BME280;5522;42.696;23.494;2022-07-29T07:30:46;95851.34;;;31.78;52.86
10940;BME280;5522;42.696;23.494;2022-07-29T07:33:13;95857.38;;;31.36;52.23
10940;BME280;5522;42.696;23.494;2022-07-29T07:35:41;95842.19;;;31.13;54.21
10940;BME280;5522;42.696;23.494;2022-07-29T07:38:09;95843.16;;;31.07;54.44
10940;BME280;5522;42.696;23.494;2022-07-29T07:40:36;95840.09;;;31.05;53.25
10940;BME280;5522;42.696;23.494;2022-07-29T07:43:03;95850.75;;;30.87;54.77
10940;BME280;5522;42.696;23.494;2022-07-29T07:45:30;95835.66;;;30.98;57.35
10940;BME280;5522;42.696;23.494;2022-07-29T07:47:59;95837.19;;;31.12;52.92
10940;BME280;5522;42.696;23.494;2022-07-29T07:50:26;95836.19;;;31.18;55.45
10940;BME280;5522;42.696;23.494;2022-07-29T07:52:55;95843.13;;;31.57;55.19
10940;BME280;5522;42.696;23.494;2022-07-29T07:55:24;95830.25;;;31.23;52.96
10940;BME280;5522;42.696;23.494;2022-07-29T07:57:51;95832.06;;;30.89;55.33
10940;BME280;5522;42.696;23.494;2022-07-29T08:00:18;95826.09;;;30.94;56.08
10940;BME280;5522;42.696;23.494;2022-07-29T08:02:45;95831.22;;;31.04;53.32
10940;BME280;5522;42.696;23.494;2022-07-29T08:05:12;95827.38;;;31.98;53.45
10940;BME280;5522;42.696;23.494;2022-07-29T08:07:43;95844.75;;;32.35;53.43
10940;BME280;5522;42.696;23.494;2022-07-29T08:10:12;95837.50;;;32.62;52.09
10940;BME280;5522;42.696;23.494;2022-07-29T08:12:39;95836.88;;;32.58;49.60
10940;BME280;5522;42.696;23.494;2022-07-29T08:15:07;95833.97;;;32.10;53.63
10940;BME280;5522;42.696;23.494;2022-07-29T08:17:34;95834.50;;;32.91;48.85
10940;BME280;5522;42.696;23.494;2022-07-29T08:20:01;95842.66;;;32.91;47.51
10940;BME280;5522;42.696;23.494;2022-07-29T08:22:29;95825.25;;;32.36;49.14
10940;BME280;5522;42.696;23.494;2022-07-29T08:24:56;95828.16;;;32.20;54.64
10940;BME280;5522;42.696;23.494;2022-07-29T08:27:24;95822.34;;;32.52;49.23
10940;BME280;5522;42.696;23.494;2022-07-29T08:29:53;95817.63;;;31.88;53.40
10940;BME280;5522;42.696;23.494;2022-07-29T08:32:21;95824.22;;;32.21;52.56
10940;BME280;5522;42.696;23.494;2022-07-29T08:34:48;95820.31;;;32.65;50.09
10940;BME280;5522;42.696;23.494;2022-07-29T08:37:15;95823.81;;;33.36;46.45
10940;BME280;5522;42.696;23.494;2022-07-29T08:39:42;95822.25;;;32.86;46.04
10940;BME280;5522;42.696;23.494;2022-07-29T08:42:10;95813.13;;;33.11;47.95
10940;BME280;5522;42.696;23.494;2022-07-29T08:44:39;95816.53;;;33.33;44.64
10940;BME280;5522;42.696;23.494;2022-07-29T08:47:06;95808.41;;;33.69;44.94
10940;BME280;5522;42.696;23.494;2022-07-29T08:49:33;95822.22;;;33.83;43.51
10940;BME280;5522;42.696;23.494;2022-07-29T08:52:02;95816.00;;;34.28;41.29
10940;BME280;5522;42.696;23.494;2022-07-29T08:54:29;95821.19;;;33.90;42.90
10940;BME280;5522;42.696;23.494;2022-07-29T08:56:57;95804.81;;;33.63;46.97
10940;BME280;5522;42.696;23.494;2022-07-29T08:59:26;95819.03;;;34.48;41.74
10940;BME280;5522;42.696;23.494;2022-07-29T09:01:57;95816.03;;;34.97;39.06
10940;BME280;5522;42.696;23.494;2022-07-29T09:04:30;95811.00;;;35.37;36.99
10940;BME280;5522;42.696;23.494;2022-07-29T09:07:00;95807.19;;;35.90;37.10
10940;BME280;5522;42.696;23.494;2022-07-29T09:09:31;95815.03;;;36.12;33.07
10940;BME280;5522;42.696;23.494;2022-07-29T09:11:59;95804.81;;;35.83;32.29
10940;BME280;5522;42.696;23.494;2022-07-29T09:14:29;95815.28;;;34.78;31.24
10940;BME280;5522;42.696;23.494;2022-07-29T09:16:57;95808.91;;;34.90;33.85
10940;BME280;5522;42.696;23.494;2022-07-29T09:19:27;95806.22;;;35.70;32.67
10940;BME280;5522;42.696;23.494;2022-07-29T09:21:56;95819.63;;;37.16;30.51
10940;BME280;5522;42.696;23.494;2022-07-29T09:24:42;95805.66;;;37.00;27.59
10940;BME280;5522;42.696;23.494;2022-07-29T09:27:20;95800.84;;;35.37;31.06
10940;BME280;5522;42.696;23.494;2022-07-29T09:29:55;95798.75;;;35.32;30.70
10940;BME280;5522;42.696;23.494;2022-07-29T09:32:25;95798.03;;;35.93;29.66
10940;BME280;5522;42.696;23.494;2022-07-29T09:35:14;95804.06;;;35.97;28.69
10940;BME280;5522;42.696;23.494;2022-07-29T09:37:42;95792.94;;;35.39;30.90
10940;BME280;5522;42.696;23.494;2022-07-29T09:40:14;95798.94;;;34.78;31.75
10940;BME280;5522;42.696;23.494;2022-07-29T09:42:42;95785.88;;;33.02;33.05
10940;BME280;5522;42.696;23.494;2022-07-29T09:45:09;95789.41;;;32.07;35.48
10940;BME280;5522;42.696;23.494;2022-07-29T09:47:46;95781.63;;;31.29;35.61
10940;BME280;5522;42.696;23.494;2022-07-29T09:50:14;95777.59;;;31.21;37.76
10940;BME280;5522;42.696;23.494;2022-07-29T09:52:46;95772.94;;;30.59;38.66
10940;BME280;5522;42.696;23.494;2022-07-29T09:55:14;95767.31;;;30.91;38.42
10940;BME280;5522;42.696;23.494;2022-07-29T09:57:42;95771.44;;;30.83;39.02
10940;BME280;5522;42.696;23.494;2022-07-29T10:00:11;95767.41;;;31.25;39.32
10940;BME280;5522;42.696;23.494;2022-07-29T10:02:40;95757.56;;;32.08;38.81
10940;BME280;5522;42.696;23.494;2022-07-29T10:05:19;95756.84;;;31.27;37.23
10940;BME280;5522;42.696;23.494;2022-07-29T10:07:49;95760.03;;;31.25;37.88
10940;BME280;5522;42.696;23.494;2022-07-29T10:10:21;95754.16;;;31.02;38.76
10940;BME280;5522;42.696;23.494;2022-07-29T10:12:50;95750.59;;;31.05;39.33
10940;BME280;5522;42.696;23.494;2022-07-29T10:15:17;95750.50;;;30.71;41.14
10940;BME280;5522;42.696;23.494;2022-07-29T10:17:45;95736.75;;;30.78;41.51
10940;BME280;5522;42.696;23.494;2022-07-29T10:20:13;95746.69;;;30.68;41.28
10940;BME280;5522;42.696;23.494;2022-07-29T10:22:42;95736.63;;;30.81;44.17
10940;BME280;5522;42.696;23.494;2022-07-29T10:25:12;95737.06;;;30.80;41.01
10940;BME280;5522;42.696;23.494;2022-07-29T10:27:40;95731.25;;;31.28;43.88
10940;BME280;5522;42.696;23.494;2022-07-29T10:30:09;95727.88;;;31.58;47.03
10940;BME280;5522;42.696;23.494;2022-07-29T10:32:51;95727.50;;;31.47;45.33
10940;BME280;5522;42.696;23.494;2022-07-29T10:35:33;95725.34;;;31.42;43.68
10940;BME280;5522;42.696;23.494;2022-07-29T10:41:21;95716.47;;;31.63;46.23
10940;BME280;5522;42.696;23.494;2022-07-29T10:43:56;95708.50;;;31.47;46.17
10940;BME280;5522;42.696;23.494;2022-07-29T10:46:26;95707.91;;;31.30;45.58
10940;BME280;5522;42.696;23.494;2022-07-29T10:49:11;95712.09;;;31.44;47.32
10940;BME280;5522;42.696;23.494;2022-07-29T10:51:57;95707.03;;;31.33;46.20
10940;BME280;5522;42.696;23.494;2022-07-29T10:54:41;95704.78;;;31.75;45.86
10940;BME280;5522;42.696;23.494;2022-07-29T10:57:21;95691.81;;;31.57;44.18
10940;BME280;5522;42.696;23.494;2022-07-29T11:02:45;95691.97;;;31.97;43.55
10940;BME280;5522;42.696;23.494;2022-07-29T11:05:17;95692.50;;;31.83;45.03
10940;BME280;5522;42.696;23.494;2022-07-29T11:08:19;95692.34;;;31.65;44.01
10940;BME280;5522;42.696;23.494;2022-07-29T11:10:51;95677.88;;;31.46;45.39
10940;BME280;5522;42.696;23.494;2022-07-29T11:13:44;95687.31;;;31.54;43.43
10940;BME280;5522;42.696;23.494;2022-07-29T11:16:12;95683.81;;;31.54;46.67
10940;BME280;5522;42.696;23.494;2022-07-29T11:21:41;95679.50;;;31.78;43.73
10940;BME280;5522;42.696;23.494;2022-07-29T11:24:12;95674.81;;;31.78;40.85
10940;BME280;5522;42.696;23.494;2022-07-29T11:26:41;95665.03;;;32.11;44.42
10940;BME280;5522;42.696;23.494;2022-07-29T11:29:17;95665.38;;;31.92;40.27
10940;BME280;5522;42.696;23.494;2022-07-29T11:31:46;95662.84;;;31.76;42.82
10940;BME280;5522;42.696;23.494;2022-07-29T11:34:22;95654.31;;;32.08;44.19
10940;BME280;5522;42.696;23.494;2022-07-29T11:40:16;95659.06;;;31.95;41.39
10940;BME280;5522;42.696;23.494;2022-07-29T11:42:46;95656.66;;;31.54;41.16
10940;BME280;5522;42.696;23.494;2022-07-29T11:45:22;95648.72;;;31.38;40.27
10940;BME280;5522;42.696;23.494;2022-07-29T11:47:55;95657.19;;;31.40;40.61
10940;BME280;5522;42.696;23.494;2022-07-29T11:50:29;95653.19;;;31.53;42.59
10940;BME280;5522;42.696;23.494;2022-07-29T11:52:56;95655.84;;;31.66;43.26
10940;BME280;5522;42.696;23.494;2022-07-29T11:55:24;95658.50;;;31.78;42.88
10940;BME280;5522;42.696;23.494;2022-07-29T11:57:53;95646.19;;;31.86;38.54
10940;BME280;5522;42.696;23.494;2022-07-29T12:00:26;95642.81;;;32.04;40.37
10940;BME280;5522;42.696;23.494;2022-07-29T12:02:54;95647.94;;;32.02;40.01
10940;BME280;5522;42.696;23.494;2022-07-29T12:05:31;95637.28;;;31.86;40.46
10940;BME280;5522;42.696;23.494;2022-07-29T12:08:11;95637.75;;;32.15;41.24
10940;BME280;5522;42.696;23.494;2022-07-29T12:10:39;95632.56;;;32.38;40.61
10940;BME280;5522;42.696;23.494;2022-07-29T12:13:09;95637.53;;;32.31;40.28
10940;BME280;5522;42.696;23.494;2022-07-29T12:15:37;95639.34;;;32.34;40.95
10940;BME280;5522;42.696;23.494;2022-07-29T12:18:12;95638.41;;;32.28;41.72
10940;BME280;5522;42.696;23.494;2022-07-29T12:20:39;95638.16;;;32.35;39.29
10940;BME280;5522;42.696;23.494;2022-07-29T12:23:07;95632.94;;;32.19;39.98
10940;BME280;5522;42.696;23.494;2022-07-29T12:25:34;95627.53;;;32.28;38.38
10940;BME280;5522;42.696;23.494;2022-07-29T12:28:04;95641.69;;;32.23;40.00
10940;BME280;5522;42.696;23.494;2022-07-29T12:30:37;95633.16;;;32.33;37.53
10940;BME280;5522;42.696;23.494;2022-07-29T12:33:16;95633.41;;;32.26;38.81
10940;BME280;5522;42.696;23.494;2022-07-29T12:35:46;95628.69;;;32.18;37.29
10940;BME280;5522;42.696;23.494;2022-07-29T12:38:14;95625.56;;;32.28;39.07
10940;BME280;5522;42.696;23.494;2022-07-29T12:40:42;95620.31;;;32.34;38.44
10940;BME280;5522;42.696;23.494;2022-07-29T12:43:11;95620.03;;;32.41;38.07
10940;BME280;5522;42.696;23.494;2022-07-29T12:45:41;95625.91;;;32.30;37.37
10940;BME280;5522;42.696;23.494;2022-07-29T12:48:08;95610.66;;;32.33;37.95
10940;BME280;5522;42.696;23.494;2022-07-29T12:50:37;95610.34;;;32.31;38.38
10940;BME280;5522;42.696;23.494;2022-07-29T12:53:17;95609.72;;;32.27;37.16
10940;BME280;5522;42.696;23.494;2022-07-29T12:55:46;95607.19;;;32.32;37.93
10940;BME280;5522;42.696;23.494;2022-07-29T12:58:25;95612.66;;;32.50;37.15
10940;BME280;5522;42.696;23.494;2022-07-29T13:01:06;95615.41;;;32.59;38.83
10940;BME280;5522;42.696;23.494;2022-07-29T13:03:50;95608.59;;;32.55;36.67
10940;BME280;5522;42.696;23.494;2022-07-29T13:06:28;95602.50;;;32.33;36.99
10940;BME280;5522;42.696;23.494;2022-07-29T13:08:59;95598.28;;;32.41;37.81
10940;BME280;5522;42.696;23.494;2022-07-29T13:11:30;95593.75;;;32.38;38.75
10940;BME280;5522;42.696;23.494;2022-07-29T13:13:57;95590.03;;;32.14;37.85
10940;BME280;5522;42.696;23.494;2022-07-29T13:16:26;95579.16;;;32.14;37.82
10940;BME280;5522;42.696;23.494;2022-07-29T13:19:07;95581.59;;;32.21;38.70
10940;BME280;5522;42.696;23.494;2022-07-29T13:21:35;95574.81;;;32.25;38.85
10940;BME280;5522;42.696;23.494;2022-07-29T13:24:03;95579.69;;;32.30;36.89
10940;BME280;5522;42.696;23.494;2022-07-29T13:26:31;95576.78;;;32.25;39.14
10940;BME280;5522;42.696;23.494;2022-07-29T13:28:58;95577.97;;;32.24;37.64